Forside
METAR-TAF:

METAR-TAF

Lufthavne :

Libreville, Gabon

Breddekreds: 00-27N, længdekreds: 009-25E, højde: 12 m

Aktuelle vejr

Denne rapport blev lavet for 25 minutter siden, kl. 13:00 UTC
Vind 4 kt fra sydvest
Temperatur 30°C
Fugtighed 75%
Tryk 1010 hPa
Sigt 10 km eller mere
Nogle få skyer i en højde af 1600 ft

METAR: FOOL 221300Z 23004KT 9999 FEW016 30/25 Q1010 NOSIG

Tid: 14:25 (13:25 UTC)

Vejrudsigter

Denne rapport blev lavet for 2 timer og 25 minutter siden, kl. 11:00 UTC
Foreløbig gælder fra 22 på 12 UTC til 23 på 18 UTC
Vind 7 kt fra sydvest
Sigt 10 km eller mere
Spredte skyer i en højde af 1100 ft
Nogle få skyer i en højde af 2000 ft, Cumulonimbus.
Brudte skyer i en højde af 3300 ft
Sandsynlighed 30% :
Midlertidig
fra 23 på 00 UTC til 23 på 04 UTC
Sigt: 5000 m
tordenbyger, regn

TAF: FOOL 221100Z 2212/2318 22007KT 9999 SCT011 FEW020CB BKN033 PROB30 TEMPO 2300/2304 5000 TSRA

Vejrobservationer og prognoser fra mere end 4000 lufthavne (METAR og TAF).

De gule og røde prikker repræsenterer de meteorologiske stationer.

Flyt musen over at se navnet på stationen.

Så klik over at se vejr observationer og prognoser.

At skifte det kort: Klik på de grønne knapper med et sort kors for at zoome ind; på den grønne knap med en bindestreg for at zoome ud; eller på de grønne pile for tilstødende kort.


METAR-TAF: